Time;durP1;ratioP1;P1;durP2;ratioP2;P2;SDS_P1;SDS_P2;PMS_P1;PMS_P2;Temp;Humidity;BMP_temperature;BMP_pressure;BME280_temperature;BME280_humidity;BME280_pressure;Samples;Min_cycle;Max_cycle;Signal;HPM_P1;HPM_P2
2021/07/24 00:00:32;;;;;;;14.95;7.87;;;;;;;17.88;70.69;100773.30;1844848;78;21015;-62
2021/07/24 00:03:01;;;;;;;12.63;6.78;;;;;;;17.82;70.79;100771.03;1844851;77;21059;-62
2021/07/24 00:05:30;;;;;;;9.35;6.20;;;;;;;17.82;70.89;100777.20;1844846;78;21063;-62
2021/07/24 00:07:59;;;;;;;12.68;5.85;;;;;;;17.75;70.69;100774.10;1844855;78;21109;-62
2021/07/24 00:10:27;;;;;;;9.30;5.80;;;;;;;17.69;70.77;100770.54;1844423;77;21110;-63
2021/07/24 00:12:56;;;;;;;13.88;5.65;;;;;;;17.62;71.03;100775.06;1844272;78;21041;-63
2021/07/24 00:15:25;;;;;;;8.85;6.20;;;;;;;17.54;70.94;100771.59;1844273;78;21109;-62
2021/07/24 00:17:54;;;;;;;12.30;6.53;;;;;;;17.49;71.46;100770.56;1844258;78;21481;-62
2021/07/24 00:20:23;;;;;;;10.05;6.80;;;;;;;17.47;71.67;100769.81;1844260;78;21016;-62
2021/07/24 00:22:52;;;;;;;10.18;6.92;;;;;;;17.45;71.89;100775.72;1844184;77;21055;-63
2021/07/24 00:25:21;;;;;;;10.78;6.45;;;;;;;17.43;71.97;100776.77;1844235;77;21063;-62
2021/07/24 00:27:50;;;;;;;17.87;6.90;;;;;;;17.35;71.87;100779.48;1844237;77;21109;-62
2021/07/24 00:30:19;;;;;;;12.93;6.47;;;;;;;17.30;72.18;100779.39;1844184;78;21531;-62
2021/07/24 00:32:48;;;;;;;15.72;7.25;;;;;;;17.27;72.22;100776.47;1844198;78;21043;-62
2021/07/24 00:35:18;;;;;;;10.28;6.55;;;;;;;17.22;72.68;100778.58;1844227;78;21090;-62
2021/07/24 00:37:46;;;;;;;8.38;6.47;;;;;;;17.17;72.88;100779.34;1844182;78;21545;-62
2021/07/24 00:40:17;;;;;;;9.10;6.33;;;;;;;17.16;72.94;100780.32;1844251;78;21027;-62
2021/07/24 00:42:51;;;;;;;8.58;6.53;;;;;;;17.13;73.11;100772.53;1844403;78;21071;-62
2021/07/24 00:45:21;;;;;;;8.73;6.40;;;;;;;17.09;73.38;100778.53;1844493;78;21023;-62
2021/07/24 00:47:53;;;;;;;11.90;6.75;;;;;;;17.06;73.57;100779.20;1844597;78;21023;-63
2021/07/24 00:50:24;;;;;;;16.02;7.12;;;;;;;17.04;73.61;100774.47;1843334;77;21502;-62
2021/07/24 00:52:59;;;;;;;12.60;6.15;;;;;;;17.02;73.61;100780.37;1844298;78;21469;-62
2021/07/24 00:55:23;;;;;;;8.38;5.97;;;;;;;16.98;73.79;100777.05;1843631;77;21047;-62
2021/07/24 00:57:52;;;;;;;8.40;6.05;;;;;;;16.94;73.82;100776.89;1844304;77;21034;-64
2021/07/24 01:00:21;;;;;;;9.68;7.03;;;;;;;16.86;74.19;100782.70;1844371;77;21137;-63
2021/07/24 01:02:51;;;;;;;11.30;7.25;;;;;;;16.80;74.44;100781.72;1844300;77;21721;-62
2021/07/24 01:05:20;;;;;;;10.23;6.67;;;;;;;16.72;74.63;100791.52;1844324;78;21524;-62
2021/07/24 01:07:50;;;;;;;10.48;7.42;;;;;;;16.69;75.02;100789.53;1821636;78;21055;-62
2021/07/24 01:10:19;;;;;;;11.68;7.50;;;;;;;16.74;74.66;100800.73;1844278;77;21101;-62
2021/07/24 01:12:49;;;;;;;10.58;6.35;;;;;;;16.81;74.25;100794.08;1844307;78;21593;-62
2021/07/24 01:15:19;;;;;;;10.50;7.22;;;;;;;16.79;74.52;100790.67;1844284;77;21105;-62
2021/07/24 01:17:49;;;;;;;13.35;6.62;;;;;;;16.79;74.27;100797.31;1844577;78;21101;-62
2021/07/24 01:20:19;;;;;;;12.00;6.85;;;;;;;16.81;74.21;100790.09;1844348;77;21110;-62
2021/07/24 01:22:49;;;;;;;9.08;5.80;;;;;;;16.77;74.41;100796.08;1844329;77;21161;-62
2021/07/24 01:25:19;;;;;;;9.50;6.55;;;;;;;16.71;74.52;100794.28;1844298;77;21594;-62
2021/07/24 01:27:48;;;;;;;12.85;6.83;;;;;;;16.60;74.99;100795.83;1844250;78;21106;-62
2021/07/24 01:30:17;;;;;;;10.08;6.47;;;;;;;16.48;75.27;100802.40;1844335;77;21007;-62
2021/07/24 01:32:48;;;;;;;11.65;6.83;;;;;;;16.36;75.80;100803.55;1844313;77;21098;-62
2021/07/24 01:35:17;;;;;;;10.95;6.45;;;;;;;16.31;76.15;100804.78;1844292;78;21066;-63
2021/07/24 01:37:46;;;;;;;12.20;6.92;;;;;;;16.32;76.09;100803.81;1844447;77;21030;-63
2021/07/24 01:40:16;;;;;;;14.30;8.05;;;;;;;16.38;75.92;100802.13;1844235;78;21091;-63
2021/07/24 01:42:45;;;;;;;13.48;7.40;;;;;;;16.46;75.57;100795.84;1844309;77;21465;-62
2021/07/24 01:45:14;;;;;;;12.13;7.03;;;;;;;16.51;75.47;100803.06;1844397;77;21062;-62
2021/07/24 01:47:42;;;;;;;8.80;6.15;;;;;;;16.54;75.22;100798.89;1844324;78;21136;-62
2021/07/24 01:53:02;;;;;;;11.57;6.40;;;;;;;16.57;75.04;100803.98;1844265;78;21469;-62
2021/07/24 01:55:47;;;;;;;8.93;6.12;;;;;;;16.58;75.08;100807.04;1821641;78;21031;-63
2021/07/24 01:58:19;;;;;;;7.75;6.33;;;;;;;16.53;75.27;100803.81;1844293;77;21043;-62
2021/07/24 02:00:53;;;;;;;13.58;6.83;;;;;;;16.46;75.19;100810.95;1843668;77;21074;-62
2021/07/24 02:03:29;;;;;;;8.90;6.97;;;;;;;16.42;75.53;100809.44;1842752;78;21043;-62
2021/07/24 02:06:17;;;;;;;10.65;6.97;;;;;;;16.42;75.39;100802.31;1844403;78;21181;-62
2021/07/24 02:08:54;;;;;;;12.88;6.72;;;;;;;16.40;75.65;100817.50;1828363;78;21070;-62
2021/07/24 02:11:23;;;;;;;13.10;6.87;;;;;;;16.37;75.87;100804.39;1844118;77;21162;-63
2021/07/24 02:13:52;;;;;;;9.05;6.37;;;;;;;16.34;75.95;100809.44;1844289;78;21047;-62
2021/07/24 02:16:21;;;;;;;11.65;6.42;;;;;;;16.34;75.93;100810.77;1844360;77;21145;-62
2021/07/24 02:18:51;;;;;;;13.25;7.03;;;;;;;16.38;75.79;100815.41;1844327;77;21067;-62
2021/07/24 02:21:23;;;;;;;;;;;;;;;16.42;75.59;100812.94;1846617;77;21066;-62
2021/07/24 02:23:52;;;;;;;15.58;7.25;;;;;;;16.40;75.49;100810.86;1807244;79;20122;-64
2021/07/24 02:26:21;;;;;;;9.63;6.03;;;;;;;16.37;75.72;100812.36;1844463;78;21525;-62
2021/07/24 02:28:50;;;;;;;7.47;5.90;;;;;;;16.36;75.75;100809.34;1844341;78;21509;-63
2021/07/24 02:31:20;;;;;;;8.00;6.05;;;;;;;16.40;75.58;100809.04;1844435;78;21086;-62
2021/07/24 02:33:49;;;;;;;8.98;5.90;;;;;;;16.46;75.42;100805.14;1844279;77;21070;-63
2021/07/24 02:36:20;;;;;;;8.23;5.75;;;;;;;16.56;75.21;100800.97;1844071;77;21136;-63
2021/07/24 02:38:48;;;;;;;10.43;6.78;;;;;;;16.60;75.10;100806.95;1844255;77;21133;-62
2021/07/24 02:41:18;;;;;;;9.53;7.35;;;;;;;16.64;74.86;100804.95;1844365;77;21077;-63
2021/07/24 02:43:47;;;;;;;11.63;8.00;;;;;;;16.66;74.76;100804.38;1821803;78;21145;-63
2021/07/24 02:46:19;;;;;;;12.40;10.05;;;;;;;16.65;74.73;100810.63;1844393;78;21559;-63
2021/07/24 02:48:49;;;;;;;10.18;6.95;;;;;;;16.60;74.93;100805.62;1844395;77;21133;-64
2021/07/24 02:51:29;;;;;;;8.98;6.30;;;;;;;16.56;75.03;100810.27;1843830;77;21082;-63
2021/07/24 02:53:58;;;;;;;11.75;6.53;;;;;;;16.54;75.07;100809.52;1844275;78;21634;-63
2021/07/24 02:56:28;;;;;;;9.83;5.83;;;;;;;16.53;75.04;100811.78;1844286;78;21079;-63
2021/07/24 02:58:56;;;;;;;8.23;6.45;;;;;;;16.57;74.84;100810.63;1844420;77;21129;-63
2021/07/24 03:01:26;;;;;;;9.78;6.80;;;;;;;16.66;74.66;100812.35;1844224;78;21050;-64
2021/07/24 03:03:54;;;;;;;12.80;10.80;;;;;;;16.72;74.52;100810.63;1844269;78;21571;-62
2021/07/24 03:06:23;;;;;;;24.98;22.02;;;;;;;16.80;74.50;100820.28;1844266;78;21075;-62
2021/07/24 03:08:52;;;;;;;32.28;28.85;;;;;;;16.89;74.27;100823.70;1844281;78;21160;-63
2021/07/24 03:11:21;;;;;;;32.90;29.45;;;;;;;17.01;74.10;100827.89;1844323;78;21047;-63
2021/07/24 03:13:49;;;;;;;26.95;23.22;;;;;;;17.06;73.84;100822.65;1849805;77;21082;-63
2021/07/24 03:16:18;;;;;;;26.50;22.05;;;;;;;17.09;73.66;100822.91;1850457;77;21586;-63
2021/07/24 03:18:47;;;;;;;14.85;10.45;;;;;;;17.13;73.57;100826.62;1850516;77;21116;-63
2021/07/24 03:21:15;;;;;;;11.93;8.78;;;;;;;17.18;73.45;100824.97;1850504;77;21148;-63
2021/07/24 03:23:44;;;;;;;12.37;10.88;;;;;;;17.23;73.42;100829.52;1850481;77;21082;-63
2021/07/24 03:26:13;;;;;;;11.10;8.73;;;;;;;17.36;73.52;100830.41;1850483;77;21133;-63
2021/07/24 03:28:42;;;;;;;21.33;18.12;;;;;;;17.62;73.67;100826.49;1850475;77;21022;-63
2021/07/24 03:31:10;;;;;;;62.83;52.48;;;;;;;17.79;72.94;100823.17;1850451;77;21058;-62
2021/07/24 03:33:39;;;;;;;57.05;46.18;;;;;;;17.84;72.35;100827.23;1850445;77;21187;-61
2021/07/24 03:36:08;;;;;;;43.02;37.25;;;;;;;17.96;72.18;100825.55;1850465;77;21046;-61
2021/07/24 03:38:37;;;;;;;35.55;29.70;;;;;;;18.14;72.10;100825.61;1850375;77;21023;-62
2021/07/24 03:41:05;;;;;;;45.05;39.33;;;;;;;18.29;71.64;100821.02;1850418;77;21023;-62
2021/07/24 03:43:34;;;;;;;21.60;15.98;;;;;;;18.31;70.98;100820.46;1850438;77;21113;-62
2021/07/24 03:46:03;;;;;;;22.85;13.00;;;;;;;18.32;70.32;100822.64;1850450;77;21129;-61
2021/07/24 03:48:31;;;;;;;19.87;17.42;;;;;;;18.48;70.54;100823.27;1850491;77;21067;-61
2021/07/24 03:51:00;;;;;;;32.50;28.20;;;;;;;18.72;70.42;100821.14;1850509;77;21027;-61
2021/07/24 03:53:29;;;;;;;41.13;29.57;;;;;;;19.00;70.31;100820.50;1850428;77;21054;-61
2021/07/24 03:55:57;;;;;;;40.75;30.70;;;;;;;19.29;69.93;100817.87;1850439;77;21121;-61
2021/07/24 03:58:26;;;;;;;28.45;20.35;;;;;;;19.57;69.57;100827.81;1850513;77;21066;-60
2021/07/24 04:00:55;;;;;;;17.77;12.50;;;;;;;19.79;68.65;100823.05;1850458;77;21521;-61
2021/07/24 04:03:24;;;;;;;15.90;10.53;;;;;;;19.98;68.06;100817.63;1850474;77;21148;-61
2021/07/24 04:05:54;;;;;;;17.00;11.22;;;;;;;20.12;67.26;100816.54;1850484;77;21150;-61
2021/07/24 04:08:22;;;;;;;17.92;11.12;;;;;;;20.32;67.09;100823.00;1850350;77;21070;-62
2021/07/24 04:10:51;;;;;;;12.50;9.28;;;;;;;20.50;66.69;100809.50;1850434;77;21090;-61
2021/07/24 04:13:20;;;;;;;13.30;9.78;;;;;;;20.70;65.72;100814.62;1850411;77;21121;-61
2021/07/24 04:15:49;;;;;;;12.50;11.20;;;;;;;20.94;65.31;100817.64;1850443;77;21126;-61
2021/07/24 04:18:24;;;;;;;11.57;8.80;;;;;;;21.23;64.86;100815.70;1850388;77;21090;-61
2021/07/24 04:20:49;;;;;;;14.75;8.70;;;;;;;21.57;64.34;100806.59;1849757;77;21148;-61
2021/07/24 04:23:17;;;;;;;18.27;8.15;;;;;;;21.89;63.49;100807.04;1850436;77;21006;-61
2021/07/24 04:25:46;;;;;;;13.03;6.97;;;;;;;22.07;62.61;100813.13;1850417;77;21050;-61
2021/07/24 04:28:15;;;;;;;9.15;5.90;;;;;;;22.17;61.99;100814.03;1850423;77;21112;-61
2021/07/24 04:30:43;;;;;;;10.25;5.47;;;;;;;22.48;62.15;100819.41;1850665;77;21055;-61
2021/07/24 04:33:12;;;;;;;12.03;5.35;;;;;;;22.78;61.55;100813.64;1850481;77;21050;-62
2021/07/24 04:35:46;;;;;;;8.35;5.85;;;;;;;23.06;60.44;100808.86;1850382;77;21211;-61
2021/07/24 04:38:16;;;;;;;11.68;5.70;;;;;;;23.33;59.49;100815.38;1849496;77;21482;-61
2021/07/24 04:40:46;;;;;;;11.28;5.28;;;;;;;23.58;58.77;100818.50;1850550;77;21015;-61
2021/07/24 04:43:15;;;;;;;13.88;7.17;;;;;;;23.77;57.97;100816.28;1850431;77;21037;-61
2021/07/24 04:45:44;;;;;;;10.38;6.00;;;;;;;23.62;57.67;100811.84;1850361;77;21105;-64
2021/07/24 04:48:13;;;;;;;10.70;6.22;;;;;;;23.58;57.71;100816.66;1850413;77;21136;-62
2021/07/24 04:50:44;;;;;;;8.08;4.50;;;;;;;23.70;57.61;100822.74;1850439;77;21058;-61
2021/07/24 04:53:15;;;;;;;12.15;4.55;;;;;;;23.99;57.50;100819.17;1850495;77;21035;-62
2021/07/24 04:55:45;;;;;;;15.25;4.60;;;;;;;24.27;56.52;100822.28;1850398;77;21054;-61
2021/07/24 04:58:15;;;;;;;10.05;4.60;;;;;;;24.56;56.66;100828.56;1850332;77;21066;-62
2021/07/24 05:00:46;;;;;;;7.53;5.17;;;;;;;25.01;56.33;100827.25;1850421;77;21485;-61
2021/07/24 05:03:15;;;;;;;9.90;4.87;;;;;;;25.28;55.03;100817.44;1850422;77;21501;-61
2021/07/24 05:05:45;;;;;;;8.33;4.62;;;;;;;25.63;54.58;100823.81;1850441;77;21050;-61
2021/07/24 05:08:14;;;;;;;7.47;3.85;;;;;;;26.03;54.26;100817.05;1850444;77;21493;-62
2021/07/24 05:10:43;;;;;;;5.95;3.60;;;;;;;26.43;52.98;100820.13;1850296;77;21484;-62
2021/07/24 05:13:12;;;;;;;5.67;3.37;;;;;;;26.69;51.99;100817.39;1850427;77;21100;-62
2021/07/24 05:15:41;;;;;;;4.87;3.27;;;;;;;27.00;51.24;100819.52;1844181;77;21588;-62
2021/07/24 05:18:12;;;;;;;9.63;3.30;;;;;;;27.37;50.88;100825.02;1844206;78;21136;-62
2021/07/24 05:20:40;;;;;;;5.83;3.25;;;;;;;27.76;50.08;100831.97;1844468;77;21107;-62
2021/07/24 05:23:10;;;;;;;10.35;3.60;;;;;;;28.13;49.44;100830.59;1844391;78;21054;-64
2021/07/24 05:29:29;;;;;;;8.88;3.50;;;;;;;28.74;46.79;100825.48;1844160;78;21156;-62
2021/07/24 05:31:58;;;;;;;6.75;2.90;;;;;;;29.03;46.45;100825.31;1844287;78;21058;-62
2021/07/24 05:34:27;;;;;;;5.00;3.25;;;;;;;29.27;45.75;100825.69;1844285;78;21555;-61
2021/07/24 05:36:56;;;;;;;10.13;3.20;;;;;;;29.41;44.34;100826.79;1844281;78;21141;-61
2021/07/24 05:39:24;;;;;;;6.47;3.08;;;;;;;29.42;43.14;100829.84;1844427;78;21124;-60
2021/07/24 05:41:55;;;;;;;8.28;3.35;;;;;;;29.32;42.46;100823.81;1844439;78;21015;-62
2021/07/24 05:44:23;;;;;;;8.10;3.37;;;;;;;29.31;42.50;100827.53;1844281;78;21086;-61
2021/07/24 05:46:52;;;;;;;7.65;3.37;;;;;;;29.61;42.89;100829.85;1844278;78;21023;-61
2021/07/24 05:49:21;;;;;;;6.87;2.90;;;;;;;29.94;42.72;100827.70;1844269;78;21148;-61
2021/07/24 05:51:50;;;;;;;5.58;3.10;;;;;;;30.22;42.18;100824.36;1844304;78;21544;-61
2021/07/24 05:54:22;;;;;;;3.45;2.70;;;;;;;30.39;40.89;100825.04;1844322;78;21059;-61
2021/07/24 05:56:50;;;;;;;4.60;2.58;;;;;;;30.32;39.95;100830.37;1844149;77;21150;-61
2021/07/24 05:59:20;;;;;;;4.85;2.72;;;;;;;30.34;39.43;100822.03;1844257;78;21485;-61
2021/07/24 06:01:49;;;;;;;7.58;2.75;;;;;;;30.60;39.36;100817.50;1844351;78;21100;-62
2021/07/24 06:04:18;;;;;;;4.83;2.62;;;;;;;30.76;38.46;100832.20;1844380;78;21071;-61
2021/07/24 06:06:47;;;;;;;6.15;2.58;;;;;;;30.87;37.64;100821.88;1844304;78;21145;-61
2021/07/24 06:09:16;;;;;;;5.42;3.42;;;;;;;31.09;38.01;100815.45;1844179;78;21133;-62
2021/07/24 06:11:45;;;;;;;5.42;2.70;;;;;;;31.38;37.63;100816.91;1844267;78;21039;-62
2021/07/24 06:14:13;;;;;;;5.75;2.70;;;;;;;31.41;36.40;100812.41;1844215;77;21528;-62
2021/07/24 06:16:42;;;;;;;6.37;2.80;;;;;;;31.52;36.36;100807.34;1844274;78;21087;-62
2021/07/24 06:19:11;;;;;;;5.53;2.83;;;;;;;31.74;36.69;100808.64;1844285;78;21239;-62
2021/07/24 06:21:39;;;;;;;7.03;2.52;;;;;;;32.02;35.65;100807.78;1844294;77;21039;-63
2021/07/24 06:24:08;;;;;;;6.62;2.47;;;;;;;31.99;34.44;100804.13;1844319;78;21015;-63
2021/07/24 06:26:38;;;;;;;10.45;2.85;;;;;;;31.97;33.95;100800.77;1844305;77;21469;-63
2021/07/24 06:29:08;;;;;;;5.72;2.47;;;;;;;32.03;33.79;100810.35;1844311;77;21141;-62
2021/07/24 06:31:38;;;;;;;6.25;2.60;;;;;;;31.99;33.81;100804.95;1843591;78;21043;-64
2021/07/24 06:34:07;;;;;;;7.83;2.87;;;;;;;32.15;33.60;100806.56;1843497;77;21023;-63
2021/07/24 06:36:39;;;;;;;5.35;2.40;;;;;;;32.32;33.60;100799.73;1844100;77;21023;-65
2021/07/24 06:39:06;;;;;;;8.93;3.30;;;;;;;32.64;33.44;100802.83;1844148;77;21047;-62
2021/07/24 06:41:35;;;;;;;9.23;2.80;;;;;;;32.87;33.91;100804.39;1854466;77;21107;-64
2021/07/24 06:44:04;;;;;;;6.60;2.80;;;;;;;33.09;33.67;100805.91;1870062;77;21100;-64
2021/07/24 06:46:33;;;;;;;7.00;2.50;;;;;;;33.35;33.62;100810.25;1857238;76;21057;-63
2021/07/24 06:51:51;;;;;;;7.25;2.87;;;;;;;33.83;33.55;100816.39;1850913;77;21133;-61
2021/07/24 06:54:20;;;;;;;7.72;2.85;;;;;;;34.08;32.45;100817.08;1850848;77;21063;-62
2021/07/24 06:56:49;;;;;;;8.70;2.90;;;;;;;33.99;31.67;100812.89;1851003;77;21111;-61
2021/07/24 06:59:18;;;;;;;6.72;2.50;;;;;;;33.99;31.67;100812.89;1850867;77;21121;-62
2021/07/24 07:01:46;;;;;;;4.90;2.22;;;;;;;33.87;31.40;100814.61;1850804;77;21079;-61
2021/07/24 07:04:15;;;;;;;8.70;2.33;;;;;;;33.65;30.73;100810.73;1850835;77;21521;-62
2021/07/24 07:06:44;;;;;;;4.80;2.50;;;;;;;33.59;30.29;100811.55;1851015;77;21192;-61
2021/07/24 07:09:13;;;;;;;5.05;2.27;;;;;;;33.68;30.72;100808.95;1850890;77;21130;-61
2021/07/24 07:11:42;;;;;;;4.50;1.95;;;;;;;33.94;30.54;100816.28;1850963;77;21070;-62
2021/07/24 07:14:11;;;;;;;5.70;2.27;;;;;;;34.07;29.36;100809.95;1851112;77;21536;-62
2021/07/24 07:16:39;;;;;;;3.50;2.40;;;;;;;34.27;28.97;100803.61;1850859;77;21125;-62
2021/07/24 07:19:08;;;;;;;7.87;1.90;;;;;;;34.57;28.86;100808.86;1850881;77;21133;-62
2021/07/24 07:21:37;;;;;;;5.55;2.45;;;;;;;34.57;28.39;100804.76;1850891;77;21054;-62
2021/07/24 07:24:06;;;;;;;6.15;2.22;;;;;;;34.44;27.82;100792.52;1850774;77;21063;-62
2021/07/24 07:26:35;;;;;;;4.80;2.17;;;;;;;34.43;28.11;100800.40;1850859;77;21525;-61
2021/07/24 07:29:03;;;;;;;5.80;2.02;;;;;;;34.44;28.10;100791.16;1850855;77;21121;-61
2021/07/24 07:31:34;;;;;;;4.30;1.92;;;;;;;34.44;28.10;100791.16;1850912;77;21047;-62
2021/07/24 07:34:03;;;;;;;5.87;2.02;;;;;;;34.54;27.49;100802.45;1850960;77;21075;-61
2021/07/24 07:36:33;;;;;;;6.97;2.05;;;;;;;34.59;27.72;100796.34;1850801;77;21133;-62
2021/07/24 07:39:02;;;;;;;4.70;2.30;;;;;;;34.81;27.51;100806.47;1850821;77;21623;-62
2021/07/24 07:41:30;;;;;;;5.37;2.00;;;;;;;35.13;27.55;100805.94;1850890;77;21042;-62
2021/07/24 07:43:59;;;;;;;7.50;2.15;;;;;;;35.43;26.92;100798.48;1850867;77;21133;-63
2021/07/24 07:46:28;;;;;;;7.35;2.40;;;;;;;35.50;26.56;100802.00;1850997;77;21536;-62
2021/07/24 07:48:57;;;;;;;8.35;2.40;;;;;;;35.72;25.89;100801.11;1850880;77;21152;-62
2021/07/24 07:51:26;;;;;;;5.40;2.35;;;;;;;35.74;25.60;100798.98;1850701;77;21644;-62
2021/07/24 07:53:55;;;;;;;3.50;1.70;;;;;;;35.90;25.60;100799.48;1850944;77;21094;-62
2021/07/24 07:56:24;;;;;;;5.83;2.22;;;;;;;36.06;24.93;100794.78;1850960;77;21027;-62
2021/07/24 07:58:53;;;;;;;5.75;2.00;;;;;;;35.86;24.45;100795.52;1850885;77;21074;-62
2021/07/24 08:01:22;;;;;;;4.90;1.90;;;;;;;35.98;24.76;100797.80;1850976;77;21125;-62
2021/07/24 08:03:51;;;;;;;8.35;2.08;;;;;;;36.03;24.86;100788.38;1850767;77;21046;-62
2021/07/24 08:06:20;;;;;;;4.87;1.67;;;;;;;36.22;24.42;100789.23;1850928;77;21047;-62
2021/07/24 08:08:48;;;;;;;7.20;1.90;;;;;;;36.38;23.98;100786.96;1850857;77;21078;-62
2021/07/24 08:11:17;;;;;;;4.25;1.90;;;;;;;36.57;24.16;100790.51;1850875;77;21153;-62
2021/07/24 08:13:46;;;;;;;6.40;1.98;;;;;;;36.55;24.08;100786.62;1850838;77;21133;-62
2021/07/24 08:16:18;;;;;;;5.42;1.70;;;;;;;36.55;24.42;100785.79;1850815;77;21053;-62
2021/07/24 08:18:47;;;;;;;;;;;;;;;36.34;23.57;100792.06;1853592;77;21478;-62
2021/07/24 08:24:57;;;;;;;3.45;1.80;;;;;;;36.08;23.45;100788.53;1865140;77;21110;-61
2021/07/24 08:31:06;;;;;;;4.60;1.55;;;;;;;36.39;21.77;100792.22;1865102;77;21400;-62
2021/07/24 08:37:06;;;;;;;3.72;2.25;;;;;;;36.63;21.06;100793.17;1865063;77;21060;-63
2021/07/24 08:39:37;;;;;;;4.12;1.52;;;;;;;36.10;20.23;100791.88;1865338;77;21162;-63
2021/07/24 08:42:09;;;;;;;2.27;1.32;;;;;;;35.81;20.49;100790.70;1865411;77;21083;-63
2021/07/24 08:44:37;;;;;;;;;;;;;;;35.79;20.89;100788.73;1867979;77;21052;-63
2021/07/24 08:47:07;;;;;;;4.22;1.77;;;;;;;35.83;21.48;100793.23;1865322;77;20152;-66
2021/07/24 08:49:36;;;;;;;3.72;1.67;;;;;;;35.78;21.56;100793.06;1865076;76;21059;-62
2021/07/24 08:52:06;;;;;;;2.02;1.40;;;;;;;35.69;21.81;100802.95;1872346;75;21054;-62
2021/07/24 08:54:35;;;;;;;4.55;1.62;;;;;;;35.60;21.97;100796.05;1877278;76;21090;-62
2021/07/24 08:57:06;;;;;;;4.05;1.45;;;;;;;35.36;21.96;100788.98;1877040;76;21125;-62
2021/07/24 08:59:37;;;;;;;5.90;1.77;;;;;;;35.32;22.10;100795.96;1877398;76;21039;-63
2021/07/24 09:02:08;;;;;;;7.75;2.22;;;;;;;35.42;22.94;100795.45;1877629;76;21083;-63
2021/07/24 09:04:37;;;;;;;4.55;2.10;;;;;;;35.81;22.88;100793.45;1877336;76;21121;-62
2021/07/24 09:07:07;;;;;;;6.15;2.20;;;;;;;36.16;22.75;100786.56;1877452;75;21045;-59
2021/07/24 09:09:37;;;;;;;5.03;1.42;;;;;;;36.51;22.35;100797.75;1877446;76;21063;-61
2021/07/24 09:12:06;;;;;;;3.02;1.92;;;;;;;36.43;21.81;100803.53;1877557;76;21544;-62
2021/07/24 09:14:37;;;;;;;4.90;1.60;;;;;;;36.37;22.20;100797.61;1877446;76;21152;-62
2021/07/24 09:17:07;;;;;;;2.77;1.70;;;;;;;36.33;21.59;100798.59;1877361;76;21622;-62
2021/07/24 09:19:37;;;;;;;3.58;1.90;;;;;;;36.38;21.53;100798.76;1877461;76;21156;-61
2021/07/24 09:22:08;;;;;;;2.83;1.57;;;;;;;36.54;21.61;100795.93;1877523;76;21144;-61
2021/07/24 09:24:37;;;;;;;6.40;1.90;;;;;;;36.41;21.45;100798.81;1874852;76;21109;-62
2021/07/24 09:27:09;;;;;;;6.17;1.90;;;;;;;36.27;21.81;100792.67;1877313;76;21110;-62
2021/07/24 09:29:38;;;;;;;5.65;2.10;;;;;;;36.40;21.41;100784.83;1875046;76;21055;-62
2021/07/24 09:32:09;;;;;;;6.60;3.12;;;;;;;36.48;21.45;100790.84;1877446;76;21543;-62
2021/07/24 09:34:41;;;;;;;4.95;2.40;;;;;;;36.70;21.88;100787.61;1877568;76;21004;-62
2021/07/24 09:37:11;;;;;;;;;;;;;;;36.88;22.20;100789.48;1880210;76;21493;-61
2021/07/24 09:39:38;;;;;;;;;;;;;;;36.94;22.27;100790.45;1868680;76;20148;-60
2021/07/24 09:42:08;;;;;;;;;;;;;;;36.89;21.90;100791.99;1880217;76;20438;-59
2021/07/24 09:44:37;;;;;;;;;;;;;;;37.03;22.04;100800.02;1879593;75;20121;-59
2021/07/24 09:47:05;;;;;;;;;;;;;;;36.81;21.68;100791.47;1880271;76;20183;-59
2021/07/24 09:49:37;;;;;;;;;;;;;;;36.37;21.44;100775.67;1880323;76;20121;-59
2021/07/24 09:52:18;;;;;;;;;;;;;;;36.02;21.52;100782.58;1879151;76;20160;-60
2021/07/24 09:54:45;;;;;;;;;;;;;;;35.77;21.94;100783.19;1877280;76;20156;-59
2021/07/24 09:57:37;;;;;;;;;;;;;;;35.66;22.55;100773.23;1877125;76;20168;-59
2021/07/24 10:00:22;;;;;;;;;;;;;;;35.63;22.48;100774.21;1876086;76;20407;-61
2021/07/24 10:03:00;;;;;;;;;;;;;;;35.63;22.99;100767.36;1877219;76;20160;-62
2021/07/24 10:05:38;;;;;;;;;;;;;;;35.73;23.24;100764.45;1877293;76;20402;-61
2021/07/24 10:08:07;;;;;;;;;;;;;;;35.82;23.29;100770.99;1875962;76;20120;-61
2021/07/24 10:10:36;;;;;;;;;;;;;;;35.79;23.48;100770.09;1877050;76;20194;-62
2021/07/24 10:13:06;;;;;;;;;;;;;;;35.77;23.04;100760.73;1876951;76;20145;-63
2021/07/24 10:15:36;;;;;;;;;;;;;;;35.84;23.54;100763.38;1877012;76;20160;-63
2021/07/24 10:18:08;;;;;;;;;;;;;;;36.03;23.74;100765.63;1876977;76;20439;-62
2021/07/24 10:20:41;;;;;;;;;;;;;;;36.14;23.87;100762.95;1877054;76;20423;-62
2021/07/24 10:23:09;;;;;;;;;;;;;;;36.32;24.02;100756.66;1875393;76;20121;-60
2021/07/24 10:25:38;;;;;;;;;;;;;;;36.14;23.62;100762.95;1876969;76;20148;-60
2021/07/24 10:28:08;;;;;;;;;;;;;;;36.10;24.07;100758.17;1847798;76;20143;-60
2021/07/24 10:30:36;;;;;;;;;;;;;;;36.10;24.10;100756.80;1877021;76;20442;-62
2021/07/24 10:33:05;;;;;;;;;;;;;;;35.98;24.42;100749.85;1877076;76;20150;-62
2021/07/24 10:35:39;;;;;;;;;;;;;;;35.85;23.92;100748.09;1877064;76;20101;-62
2021/07/24 10:38:26;;;;;;;;;;;;;;;35.80;24.44;100752.07;1876959;76;20196;-62
2021/07/24 10:40:54;;;;;;;;;;;;;;;35.43;24.64;100742.91;1877030;76;20113;-62
2021/07/24 10:43:41;;;;;;;;;;;;;;;35.19;24.42;100757.73;1877119;76;20151;-61
2021/07/24 10:46:10;;;;;;;;;;;;;;;34.99;24.44;100742.28;1779297;81;20168;-61
2021/07/24 10:48:46;;;;;;;;;;;;;;;35.02;24.79;100748.38;1779327;81;20206;-62
2021/07/24 10:51:14;;;;;;;;;;;;;;;35.03;23.60;100747.29;1820245;76;20117;-61
2021/07/24 10:54:00;;;;;;;;;;;;;;;34.68;24.05;100744.99;1879400;76;20151;-61
2021/07/24 10:56:37;;;;;;;;;;;;;;;34.55;24.15;100740.44;1880119;76;20147;-61
2021/07/24 10:59:16;;;;;;;;;;;;;;;34.36;24.19;100746.28;1880012;76;20202;-62
2021/07/24 11:01:45;;;;;;;;;;;;;;;34.00;23.77;100740.83;1880172;76;20147;-62
2021/07/24 11:04:31;;;;;;;;;;;;;;;33.83;24.37;100735.00;1880141;76;20126;-62
2021/07/24 11:07:15;;;;;;;;;;;;;;;33.67;24.42;100739.55;1880105;76;20121;-62
2021/07/24 11:09:47;;;;;;;;;;;;;;;33.44;24.55;100734.81;1880112;76;20117;-61
2021/07/24 11:12:16;;;;;;;;;;;;;;;33.15;24.63;100737.97;1880090;76;20180;-61
2021/07/24 11:14:45;;;;;;;;;;;;;;;33.09;25.15;100748.63;1880085;76;20120;-61
2021/07/24 11:17:19;;;;;;;;;;;;;;;33.08;24.98;100751.02;1903671;74;20125;-62
2021/07/24 11:19:52;;;;;;;;;;;;;;;32.93;25.09;100740.01;1908274;75;20173;-62
2021/07/24 11:22:32;;;;;;;;;;;;;;;32.80;25.22;100749.83;1908544;75;20148;-62
2021/07/24 11:24:57;;;;;;;;;;;;;;;32.75;25.33;100747.41;1908761;73;20114;-62
2021/07/24 11:27:29;;;;;;;;;;;;;;;32.65;25.33;100749.17;1908304;74;20114;-61
2021/07/24 11:30:05;;;;;;;;;;;;;;;32.57;25.45;100752.87;1908335;75;20161;-61
2021/07/24 11:32:34;;;;;;;;;;;;;;;32.47;25.26;100753.80;1908353;75;20113;-62
2021/07/24 11:35:09;;;;;;;;;;;;;;;32.40;25.54;100748.30;1908368;75;20118;-61
2021/07/24 11:37:38;;;;;;;;;;;;;;;32.43;25.53;100745.19;1908422;75;20515;-61
2021/07/24 11:40:06;;;;;;;;;;;;;;;32.35;25.06;100745.34;1908360;75;20422;-62
2021/07/24 11:42:35;;;;;;;;;;;;;;;32.22;25.33;100739.34;1908344;75;20372;-61
2021/07/24 11:45:02;;;;;;;;;;;;;;;32.19;25.74;100738.37;1908490;75;20126;-62
2021/07/24 11:47:30;;;;;;;;;;;;;;;32.22;25.73;100735.76;1908338;75;20140;-61
2021/07/24 11:50:16;;;;;;;;;;;;;;;32.29;26.04;100740.19;1908352;75;20121;-62
2021/07/24 11:52:46;;;;;;;;;;;;;;;32.35;26.01;100735.81;1908356;75;20145;-62
2021/07/24 11:55:16;;;;;;;;;;;;;;;32.37;25.73;100732.89;1908257;74;20150;-62
2021/07/24 11:57:44;;;;;;;;;;;;;;;32.26;25.88;100736.53;1908804;74;20106;-61
2021/07/24 12:00:12;;;;;;;;;;;;;;;32.26;26.02;100728.86;1908317;75;20117;-62
2021/07/24 12:02:40;;;;;;;;;;;;;;;32.20;26.00;100730.52;1908348;75;20157;-61
2021/07/24 12:05:08;;;;;;;;;;;;;;;32.08;25.71;100728.06;1908376;75;20165;-62
2021/07/24 12:07:36;;;;;;;;;;;;;;;32.02;26.14;100724.23;1908291;75;20117;-62
2021/07/24 12:10:04;;;;;;;;;;;;;;;32.05;26.34;100728.45;1908315;75;20185;-62